Time;durP1;ratioP1;P1;durP2;ratioP2;P2;SDS_P1;SDS_P2;PMS_P1;PMS_P2;Temp;Humidity;BMP_temperature;BMP_pressure;BME280_temperature;BME280_humidity;BME280_pressure;Samples;Min_cycle;Max_cycle;Signal;HPM_P1;HPM_P2
2022/03/30 00:02:14;;;;;;;4.15;3.30;;;20.00;44.10;;;;;;5039921;27;44945;-62
2022/03/30 00:04:42;;;;;;;4.55;3.15;;;20.00;44.10;;;;;;5073806;27;43458;-62
2022/03/30 00:07:10;;;;;;;3.67;3.20;;;20.00;44.20;;;;;;5090793;27;43520;-62
2022/03/30 00:09:37;;;;;;;3.63;3.28;;;19.90;44.10;;;;;;5056280;27;43526;-62
2022/03/30 00:12:05;;;;;;;3.92;2.97;;;19.90;44.20;;;;;;5039563;27;43752;-62
2022/03/30 00:14:36;;;;;;;4.22;2.85;;;19.90;44.20;;;;;;5077717;27;43464;-62
2022/03/30 00:17:04;;;;;;;4.90;3.05;;;19.90;44.20;;;;;;5089193;27;43442;-62
2022/03/30 00:19:31;;;;;;;3.50;3.10;;;19.90;44.10;;;;;;5051236;27;43497;-62
2022/03/30 00:21:59;;;;;;;3.80;2.97;;;19.90;44.20;;;;;;5070426;27;44992;-62
2022/03/30 00:24:28;;;;;;;3.55;3.20;;;19.90;44.20;;;;;;5044418;27;43999;-61
2022/03/30 00:26:55;;;;;;;3.55;3.25;;;19.90;44.10;;;;;;5082429;27;43461;-63
2022/03/30 00:29:22;;;;;;;3.75;3.28;;;19.90;44.20;;;;;;5107314;27;44171;-62
2022/03/30 00:31:50;;;;;;;3.85;3.28;;;19.90;44.20;;;;;;5070285;27;45025;-62
2022/03/30 00:34:17;;;;;;;3.97;3.42;;;19.90;44.20;;;;;;5119047;27;43558;-62
2022/03/30 00:36:45;;;;;;;4.03;3.03;;;19.90;44.20;;;;;;5072044;27;43424;-62
2022/03/30 00:39:12;;;;;;;3.78;3.33;;;19.80;44.20;;;;;;5106547;27;44157;-62
2022/03/30 00:41:40;;;;;;;3.90;3.05;;;19.80;44.20;;;;;;5069877;27;43883;-62
2022/03/30 00:44:12;;;;;;;4.43;3.03;;;19.80;44.20;;;;;;5076720;27;43494;-62
2022/03/30 00:46:43;;;;;;;3.20;2.90;;;19.80;44.20;;;;;;5054747;27;43461;-62
2022/03/30 00:49:12;;;;;;;4.30;3.40;;;19.80;44.20;;;;;;5068310;27;43444;-62
2022/03/30 00:51:39;;;;;;;4.22;3.25;;;19.80;44.20;;;;;;5069634;27;44052;-62
2022/03/30 00:54:07;;;;;;;4.22;3.05;;;19.80;44.20;;;;;;5083229;27;44802;-62
2022/03/30 00:56:36;;;;;;;5.18;3.70;;;19.80;44.20;;;;;;5042312;27;43479;-63
2022/03/30 00:59:06;;;;;;;3.47;3.10;;;19.80;44.20;;;;;;5068917;27;43510;-62
2022/03/30 01:01:34;;;;;;;3.85;3.20;;;19.80;44.30;;;;;;5064890;27;43790;-62
2022/03/30 01:04:04;;;;;;;3.30;3.00;;;19.70;44.20;;;;;;5079904;27;44077;-62
2022/03/30 01:06:32;;;;;;;4.20;3.45;;;19.70;44.20;;;;;;5067182;27;43972;-62
2022/03/30 01:09:00;;;;;;;3.72;3.10;;;19.70;44.20;;;;;;5069880;27;43459;-62
2022/03/30 01:11:28;;;;;;;4.30;3.20;;;19.70;44.20;;;;;;5069783;27;45104;-62
2022/03/30 01:13:56;;;;;;;4.20;3.03;;;19.70;44.30;;;;;;5089387;27;43701;-63
2022/03/30 01:16:31;;;;;;;4.72;3.30;;;19.70;44.30;;;;;;5034754;27;43464;-62
2022/03/30 01:19:06;;;;;;;4.53;3.22;;;19.70;44.20;;;;;;5069952;27;43442;-62
2022/03/30 01:21:35;;;;;;;3.30;2.90;;;19.70;44.30;;;;;;5079968;27;45045;-62
2022/03/30 01:24:04;;;;;;;3.38;3.03;;;19.70;44.30;;;;;;5050525;27;43969;-62
2022/03/30 01:26:32;;;;;;;3.30;2.85;;;19.70;44.30;;;;;;5068201;27;43397;-62
2022/03/30 01:29:00;;;;;;;3.10;2.60;;;19.70;44.20;;;;;;5070805;27;43557;-62
2022/03/30 01:34:13;;;;;;;3.10;2.80;;;19.70;44.30;;;;;;5046992;27;43704;-63
2022/03/30 01:36:41;;;;;;;3.25;2.85;;;19.60;44.30;;;;;;5072977;27;43450;-63
2022/03/30 01:39:08;;;;;;;3.33;2.40;;;19.70;44.40;;;;;;5077825;27;43580;-63
2022/03/30 01:41:36;;;;;;;3.10;2.80;;;19.70;44.40;;;;;;5072257;27;43870;-62
2022/03/30 01:44:03;;;;;;;2.97;2.67;;;19.60;44.40;;;;;;5104949;27;43990;-62
2022/03/30 01:46:31;;;;;;;3.67;3.10;;;19.60;44.30;;;;;;5082791;27;43524;-62
2022/03/30 01:48:58;;;;;;;2.50;2.30;;;19.60;44.40;;;;;;5077739;27;43497;-62
2022/03/30 01:51:26;;;;;;;2.67;2.47;;;19.60;44.40;;;;;;5062755;27;44061;-62
2022/03/30 01:53:53;;;;;;;3.22;2.85;;;19.60;44.40;;;;;;5069733;27;43459;-63
2022/03/30 01:56:21;;;;;;;2.50;2.30;;;19.60;44.40;;;;;;5072684;27;43427;-63
2022/03/30 01:58:49;;;;;;;3.30;2.45;;;19.60;44.40;;;;;;5077914;27;43474;-62
2022/03/30 02:01:16;;;;;;;2.20;2.00;;;19.60;44.40;;;;;;5052877;27;43796;-62
2022/03/30 02:03:43;;;;;;;2.13;2.00;;;19.60;44.40;;;;;;5069948;27;44031;-62
2022/03/30 02:06:12;;;;;;;3.17;2.20;;;19.50;44.30;;;;;;5072541;27;43492;-62
2022/03/30 02:08:40;;;;;;;2.42;2.15;;;19.60;44.40;;;;;;5073957;27;43457;-62
2022/03/30 02:11:07;;;;;;;2.33;2.13;;;19.50;44.40;;;;;;5072036;27;43788;-62
2022/03/30 02:13:35;;;;;;;2.03;1.92;;;19.50;44.30;;;;;;5039535;27;43387;-62
2022/03/30 02:16:02;;;;;;;2.60;2.22;;;19.50;44.40;;;;;;5096327;27;43485;-62
2022/03/30 02:18:30;;;;;;;2.42;2.05;;;19.50;44.40;;;;;;5091426;27;43569;-61
2022/03/30 02:20:57;;;;;;;1.90;1.80;;;19.50;44.40;;;;;;5063432;27;43811;-62
2022/03/30 02:23:25;;;;;;;1.95;1.83;;;19.50;44.40;;;;;;5043954;27;43465;-63
2022/03/30 02:25:53;;;;;;;1.73;1.63;;;19.50;44.40;;;;;;5071727;27;43449;-62
2022/03/30 02:28:21;;;;;;;1.75;1.63;;;19.50;44.40;;;;;;5088928;27;43470;-62
2022/03/30 02:30:48;;;;;;;1.67;1.58;;;19.40;44.40;;;;;;5067883;27;43619;-63
2022/03/30 02:33:16;;;;;;;1.83;1.60;;;19.40;44.40;;;;;;5084810;27;43405;-62
2022/03/30 02:35:43;;;;;;;1.80;1.70;;;19.50;44.40;;;;;;5102358;27;43499;-62
2022/03/30 02:38:11;;;;;;;1.80;1.70;;;19.40;44.40;;;;;;5073813;27;43427;-62
2022/03/30 02:40:38;;;;;;;2.00;1.80;;;19.40;44.40;;;;;;5060558;27;43774;-62
2022/03/30 02:43:06;;;;;;;1.70;1.60;;;19.40;44.40;;;;;;5107321;27;44119;-62
2022/03/30 02:45:34;;;;;;;1.50;1.40;;;19.40;44.40;;;;;;5066149;27;43422;-62
2022/03/30 02:50:53;;;;;;;2.00;1.80;;;19.40;44.50;;;;;;5071745;27;44674;-62
2022/03/30 02:53:21;;;;;;;1.55;1.45;;;19.40;45.10;;;;;;5071219;27;43396;-62
2022/03/30 02:55:48;;;;;;;2.10;1.60;;;19.40;44.50;;;;;;5065817;27;43472;-62
2022/03/30 02:58:16;;;;;;;1.85;1.30;;;19.40;44.50;;;;;;5066712;27;43867;-62
2022/03/30 03:00:44;;;;;;;1.75;1.65;;;19.40;44.50;;;;;;5073634;27;44622;-62
2022/03/30 03:03:12;;;;;;;1.50;1.40;;;19.30;44.40;;;;;;5071494;27;44177;-62
2022/03/30 03:05:41;;;;;;;1.20;1.20;;;19.30;44.40;;;;;;5057647;27;43451;-62
2022/03/30 03:08:11;;;;;;;1.60;1.50;;;19.30;44.40;;;;;;5066734;27;43570;-62
2022/03/30 03:10:44;;;;;;;1.88;1.70;;;19.30;44.40;;;;;;5069594;27;44062;-62
2022/03/30 03:13:13;;;;;;;1.40;1.30;;;19.30;44.50;;;;;;5075075;27;43452;-62
2022/03/30 03:15:41;;;;;;;1.40;1.30;;;19.30;45.10;;;;;;5066607;27;43509;-62
2022/03/30 03:18:09;;;;;;;1.48;1.38;;;19.30;44.50;;;;;;5086573;27;43514;-62
2022/03/30 03:20:36;;;;;;;1.63;1.52;;;19.30;44.40;;;;;;5084157;27;44970;-62
2022/03/30 03:23:04;;;;;;;1.20;1.10;;;19.30;44.50;;;;;;5065299;27;43464;-62
2022/03/30 03:25:33;;;;;;;1.23;1.17;;;19.30;44.50;;;;;;5061700;27;43476;-62
2022/03/30 03:28:01;;;;;;;1.10;1.10;;;19.30;44.50;;;;;;5081739;27;43442;-61
2022/03/30 03:30:29;;;;;;;1.00;1.00;;;19.20;44.50;;;;;;5071095;27;43794;-62
2022/03/30 03:32:57;;;;;;;1.30;1.20;;;19.20;44.50;;;;;;5057983;27;43545;-63
2022/03/30 03:35:25;;;;;;;1.10;1.10;;;19.20;44.50;;;;;;5057017;27;43472;-62
2022/03/30 03:37:54;;;;;;;0.88;0.88;;;19.20;44.50;;;;;;5082678;27;43551;-62
2022/03/30 03:40:21;;;;;;;1.23;1.13;;;19.20;45.20;;;;;;5065618;27;43788;-62
2022/03/30 03:42:49;;;;;;;0.95;0.95;;;19.20;44.50;;;;;;5051445;27;43970;-62
2022/03/30 03:45:17;;;;;;;1.10;1.10;;;19.20;44.50;;;;;;5088255;27;43536;-62
2022/03/30 03:47:47;;;;;;;1.10;1.10;;;19.20;44.60;;;;;;5082292;27;43527;-62
2022/03/30 03:50:15;;;;;;;1.10;1.10;;;19.20;44.50;;;;;;5061360;27;44627;-63
2022/03/30 03:52:43;;;;;;;1.05;1.02;;;19.10;44.50;;;;;;5082266;27;43674;-62
2022/03/30 03:55:12;;;;;;;0.90;0.90;;;19.10;44.50;;;;;;5057665;27;43476;-61
2022/03/30 03:57:40;;;;;;;1.05;1.02;;;19.10;44.50;;;;;;5077971;27;43469;-61
2022/03/30 04:00:10;;;;;;;0.80;0.80;;;19.10;44.50;;;;;;5049245;27;44428;-62
2022/03/30 04:02:41;;;;;;;0.80;0.80;;;19.10;44.50;;;;;;5099737;27;43385;-62
2022/03/30 04:05:10;;;;;;;1.17;0.90;;;19.10;44.60;;;;;;5090269;27;43461;-62
2022/03/30 04:07:38;;;;;;;1.35;0.98;;;19.10;44.60;;;;;;5067703;27;43492;-63
2022/03/30 04:10:07;;;;;;;1.02;0.90;;;19.10;44.60;;;;;;5052342;27;44326;-62
2022/03/30 04:12:35;;;;;;;0.90;0.90;;;19.10;44.60;;;;;;5082897;27;43716;-62
2022/03/30 04:15:03;;;;;;;0.80;0.80;;;19.00;44.50;;;;;;5098775;27;43588;-62
2022/03/30 04:17:32;;;;;;;1.00;1.00;;;19.00;44.60;;;;;;5059475;27;43359;-62
2022/03/30 04:20:00;;;;;;;0.50;0.50;;;19.00;44.50;;;;;;5046076;27;43792;-62
2022/03/30 04:22:28;;;;;;;0.75;0.75;;;19.00;44.60;;;;;;5082242;27;43471;-62
2022/03/30 04:24:55;;;;;;;1.13;1.00;;;19.00;44.60;;;;;;5067725;27;43472;-62
2022/03/30 04:27:23;;;;;;;0.60;0.60;;;19.00;44.70;;;;;;5056523;27;44080;-61
2022/03/30 04:29:50;;;;;;;0.80;0.80;;;19.00;44.60;;;;;;5040767;27;44693;-62
2022/03/30 04:32:18;;;;;;;0.82;0.82;;;19.00;44.60;;;;;;5078742;27;43458;-62
2022/03/30 04:34:45;;;;;;;0.70;0.70;;;19.00;44.60;;;;;;5088828;27;43517;-62
2022/03/30 04:37:17;;;;;;;1.05;1.00;;;19.00;44.60;;;;;;5093520;27;43503;-62
2022/03/30 04:39:44;;;;;;;1.08;0.98;;;19.00;44.60;;;;;;5038169;27;43881;-62
2022/03/30 04:42:13;;;;;;;0.70;0.70;;;18.90;44.70;;;;;;5081269;27;43695;-62
2022/03/30 04:44:41;;;;;;;0.90;0.90;;;18.90;44.60;;;;;;5081303;27;43568;-62
2022/03/30 04:47:09;;;;;;;0.80;0.80;;;18.90;44.60;;;;;;5049251;27;43460;-62
2022/03/30 04:49:36;;;;;;;0.77;0.60;;;18.90;44.60;;;;;;5070381;27;43807;-62
2022/03/30 04:52:04;;;;;;;0.60;0.60;;;18.90;44.60;;;;;;5083768;27;44009;-62
2022/03/30 04:54:32;;;;;;;0.80;0.80;;;18.90;44.70;;;;;;5074850;27;43439;-62
2022/03/30 04:56:59;;;;;;;0.82;0.77;;;18.90;44.70;;;;;;5042819;27;43490;-62
2022/03/30 04:59:26;;;;;;;0.60;0.60;;;18.90;44.70;;;;;;5070090;27;43809;-62
2022/03/30 05:01:54;;;;;;;0.90;0.90;;;18.90;44.60;;;;;;5083504;27;43508;-62
2022/03/30 05:04:21;;;;;;;0.60;0.60;;;18.90;44.70;;;;;;5070973;27;43495;-62
2022/03/30 05:06:49;;;;;;;0.88;0.85;;;18.80;44.60;;;;;;5076766;27;43430;-62
2022/03/30 05:09:16;;;;;;;0.68;0.68;;;18.90;44.70;;;;;;5068845;27;43790;-61
2022/03/30 05:11:44;;;;;;;1.60;0.68;;;18.80;44.60;;;;;;5111827;27;44327;-62
2022/03/30 05:14:11;;;;;;;0.77;0.52;;;18.90;44.70;;;;;;5066047;27;43534;-62
2022/03/30 05:16:39;;;;;;;0.63;0.63;;;18.80;44.60;;;;;;5072123;27;43531;-62
2022/03/30 05:19:06;;;;;;;0.70;0.70;;;18.80;44.60;;;;;;5073152;27;43907;-62
2022/03/30 05:21:33;;;;;;;1.15;0.63;;;18.80;44.70;;;;;;5086242;27;43454;-62
2022/03/30 05:24:01;;;;;;;1.00;0.50;;;18.80;44.70;;;;;;5095186;27;43540;-62
2022/03/30 05:26:29;;;;;;;0.90;0.60;;;18.80;44.70;;;;;;5070027;27;43452;-62
2022/03/30 05:28:56;;;;;;;0.60;0.60;;;18.80;44.60;;;;;;5072617;27;44670;-61
2022/03/30 05:31:24;;;;;;;0.60;0.60;;;18.80;44.70;;;;;;5085996;27;43407;-62
2022/03/30 05:33:51;;;;;;;0.75;0.73;;;18.80;44.70;;;;;;5047363;27;43543;-62
2022/03/30 05:36:19;;;;;;;0.90;0.90;;;18.70;44.60;;;;;;5071425;27;43455;-62
2022/03/30 05:38:48;;;;;;;0.75;0.75;;;18.80;44.70;;;;;;5084988;27;44052;-62
2022/03/30 05:41:16;;;;;;;0.98;0.80;;;18.70;44.70;;;;;;5128606;27;43459;-62
2022/03/30 05:43:44;;;;;;;0.82;0.60;;;18.80;44.70;;;;;;5069377;27;43458;-62
2022/03/30 05:46:11;;;;;;;0.65;0.60;;;18.70;44.70;;;;;;5083414;27;43481;-62
2022/03/30 05:48:39;;;;;;;0.32;0.32;;;18.70;44.60;;;;;;5072422;27;44069;-62
2022/03/30 05:51:07;;;;;;;0.95;0.68;;;18.70;44.60;;;;;;5074773;27;43522;-62
2022/03/30 05:53:35;;;;;;;0.98;0.75;;;18.70;44.60;;;;;;5069234;27;43512;-62
2022/03/30 05:56:04;;;;;;;0.85;0.60;;;18.70;44.60;;;;;;5071859;27;43595;-62
2022/03/30 05:58:31;;;;;;;0.93;0.50;;;18.70;44.60;;;;;;5072255;27;43782;-62
2022/03/30 06:01:04;;;;;;;0.57;0.57;;;18.70;44.60;;;;;;5042353;27;43368;-62
2022/03/30 06:03:34;;;;;;;0.43;0.43;;;18.70;44.60;;;;;;5065922;27;43416;-62
2022/03/30 06:06:02;;;;;;;0.55;0.50;;;18.70;44.60;;;;;;5069155;27;43483;-62
2022/03/30 06:08:29;;;;;;;0.57;0.57;;;18.60;44.60;;;;;;5097830;27;43985;-62
2022/03/30 06:10:56;;;;;;;0.50;0.47;;;18.70;44.60;;;;;;5052494;27;43432;-62
2022/03/30 06:13:24;;;;;;;0.63;0.63;;;18.70;44.70;;;;;;5037003;28;43496;-62
2022/03/30 06:15:51;;;;;;;0.65;0.60;;;18.60;44.60;;;;;;5069575;27;43454;-63
2022/03/30 06:18:19;;;;;;;0.95;0.73;;;18.60;44.60;;;;;;5068654;27;44719;-63
2022/03/30 06:20:47;;;;;;;0.90;0.40;;;18.60;44.60;;;;;;5072322;27;43578;-62
2022/03/30 06:23:15;;;;;;;0.50;0.50;;;18.60;44.70;;;;;;5044552;27;43459;-62
2022/03/30 06:25:42;;;;;;;0.68;0.68;;;18.60;44.80;;;;;;5072165;27;43450;-61
2022/03/30 06:28:10;;;;;;;0.90;0.63;;;18.60;44.80;;;;;;5065827;27;43811;-62
2022/03/30 06:30:38;;;;;;;0.55;0.50;;;18.60;44.80;;;;;;5124253;27;43497;-62
2022/03/30 06:33:05;;;;;;;0.55;0.50;;;18.60;44.90;;;;;;5076066;27;43470;-62
2022/03/30 06:35:33;;;;;;;1.25;0.85;;;18.50;44.90;;;;;;5072080;27;43490;-62
2022/03/30 06:38:02;;;;;;;0.57;0.57;;;18.50;44.90;;;;;;5057956;27;44941;-62
2022/03/30 06:40:30;;;;;;;1.10;0.60;;;18.50;44.90;;;;;;5064939;27;43427;-63
2022/03/30 06:43:00;;;;;;;0.75;0.57;;;18.50;45.00;;;;;;5074141;27;43516;-61
2022/03/30 06:45:27;;;;;;;0.60;0.60;;;18.50;45.00;;;;;;5066905;27;43546;-62
2022/03/30 06:47:56;;;;;;;0.73;0.43;;;18.50;45.00;;;;;;5057514;27;44699;-62
2022/03/30 06:50:24;;;;;;;0.88;0.68;;;18.50;45.00;;;;;;5091544;27;43809;-63
2022/03/30 06:52:51;;;;;;;0.77;0.73;;;18.50;45.00;;;;;;5069456;27;43607;-62
2022/03/30 06:55:19;;;;;;;3.15;0.68;;;18.50;45.00;;;;;;5060336;27;43534;-59
2022/03/30 06:57:47;;;;;;;0.82;0.60;;;18.50;45.30;;;;;;5052579;27;43809;-62
2022/03/30 07:00:15;;;;;;;5.07;2.38;;;18.50;45.10;;;;;;5091252;27;44881;-62
2022/03/30 07:02:43;;;;;;;2.63;1.67;;;18.50;45.20;;;;;;5075199;27;43501;-62
2022/03/30 07:05:11;;;;;;;2.20;1.80;;;18.50;45.00;;;;;;5056184;27;43496;-62
2022/03/30 07:10:27;;;;;;;4.13;2.05;;;18.50;45.00;;;;;;5078057;27;43957;-62
2022/03/30 07:12:54;;;;;;;4.30;2.80;;;18.50;45.00;;;;;;5085832;27;43406;-61
2022/03/30 07:15:22;;;;;;;3.30;2.58;;;18.50;45.10;;;;;;5071403;27;43583;-62
2022/03/30 07:17:52;;;;;;;2.10;2.00;;;18.50;45.20;;;;;;5090636;27;44696;-62
2022/03/30 07:20:21;;;;;;;3.03;1.80;;;18.60;45.20;;;;;;5073383;27;43731;-63
2022/03/30 07:22:50;;;;;;;5.45;2.15;;;18.70;45.10;;;;;;5076582;27;43481;-62
2022/03/30 07:25:20;;;;;;;3.38;1.90;;;18.80;45.00;;;;;;5053636;27;43538;-62
2022/03/30 07:27:52;;;;;;;2.23;1.90;;;18.90;45.00;;;;;;5067844;27;43944;-63
2022/03/30 07:30:21;;;;;;;3.90;1.92;;;19.10;44.80;;;;;;5094660;27;44006;-62
2022/03/30 07:32:51;;;;;;;2.97;1.88;;;19.20;44.80;;;;;;5049379;27;43452;-63
2022/03/30 07:35:22;;;;;;;2.08;1.88;;;19.50;44.70;;;;;;5041358;27;43513;-62
2022/03/30 07:37:50;;;;;;;1.98;1.80;;;19.70;44.50;;;;;;5083717;27;44985;-62
2022/03/30 07:40:19;;;;;;;1.88;1.77;;;19.90;44.30;;;;;;5040392;27;43754;-63
2022/03/30 07:42:48;;;;;;;4.95;1.85;;;20.10;44.10;;;;;;5034162;27;43445;-60
2022/03/30 07:45:16;;;;;;;2.85;1.90;;;20.40;44.10;;;;;;5060568;27;43571;-61
2022/03/30 07:47:44;;;;;;;4.32;1.95;;;20.60;44.10;;;;;;5035446;27;44691;-62
2022/03/30 07:50:12;;;;;;;1.90;1.70;;;20.80;43.90;;;;;;5038458;27;43563;-61
2022/03/30 07:52:41;;;;;;;2.22;1.75;;;21.00;43.90;;;;;;5056609;27;43540;-61
2022/03/30 07:55:11;;;;;;;1.70;1.60;;;21.10;43.70;;;;;;5043858;27;43554;-61
2022/03/30 07:57:42;;;;;;;2.90;1.80;;;21.40;43.70;;;;;;5050092;27;43782;-61
2022/03/30 08:00:16;;;;;;;3.83;2.42;;;21.50;43.40;;;;;;5094138;27;43433;-61
2022/03/30 08:02:45;;;;;;;3.95;1.88;;;21.70;43.70;;;;;;5051257;27;43509;-61
2022/03/30 08:05:14;;;;;;;7.22;1.85;;;21.80;43.50;;;;;;5038964;27;43497;-60
2022/03/30 08:07:43;;;;;;;2.35;1.63;;;22.00;43.50;;;;;;5064926;27;44034;-61
2022/03/30 08:10:11;;;;;;;3.63;2.92;;;22.20;43.30;;;;;;5036883;27;43462;-61
2022/03/30 08:12:42;;;;;;;9.32;7.53;;;22.50;43.00;;;;;;5040327;27;43445;-61
2022/03/30 08:15:13;;;;;;;9.90;7.90;;;22.80;44.30;;;;;;5037875;27;43509;-61
2022/03/30 08:17:43;;;;;;;10.13;8.82;;;23.10;42.60;;;;;;5040184;27;43627;-60
2022/03/30 08:22:25;;;;;;;9.60;8.45;;;23.40;42.40;;;;;;5065189;27;43466;-62
2022/03/30 08:22:59;;;;;;;12.23;8.73;;;23.70;42.00;;;;;;5042021;27;43461;-62
2022/03/30 08:25:27;;;;;;;10.77;8.85;;;23.90;41.70;;;;;;5050611;27;43560;-62
2022/03/30 08:27:55;;;;;;;9.25;8.35;;;24.20;41.40;;;;;;5104173;27;44067;-63
2022/03/30 08:30:22;;;;;;;10.48;8.18;;;24.50;41.20;;;;;;5059414;27;43566;-62
2022/03/30 08:32:50;;;;;;;9.57;8.38;;;24.70;40.80;;;;;;5032890;27;43490;-62
2022/03/30 08:35:17;;;;;;;9.05;7.78;;;24.90;40.60;;;;;;5034072;27;43542;-61
2022/03/30 08:37:45;;;;;;;8.68;7.53;;;25.00;40.30;;;;;;5052496;27;44727;-62
2022/03/30 08:40:13;;;;;;;7.80;6.97;;;25.10;39.80;;;;;;5089540;27;44324;-61
2022/03/30 08:42:41;;;;;;;8.35;6.88;;;25.20;39.70;;;;;;5081338;27;43466;-61
2022/03/30 08:45:10;;;;;;;6.97;6.32;;;25.20;39.80;;;;;;5043324;27;43550;-61
2022/03/30 08:47:37;;;;;;;6.68;5.50;;;25.30;39.90;;;;;;5046184;27;43807;-62
2022/03/30 08:50:06;;;;;;;6.45;5.22;;;25.40;39.50;;;;;;5049910;27;43467;-62
2022/03/30 08:52:34;;;;;;;5.75;5.10;;;25.40;39.40;;;;;;5048505;27;43448;-61
2022/03/30 08:55:02;;;;;;;6.57;5.45;;;25.50;39.40;;;;;;5052964;27;43450;-61
2022/03/30 08:57:30;;;;;;;6.05;4.88;;;25.50;39.50;;;;;;5066766;27;44735;-62
2022/03/30 09:00:09;;;;;;;6.78;4.75;;;25.60;39.60;;;;;;5050924;27;43982;-61
2022/03/30 09:02:42;;;;;;;4.75;4.13;;;25.60;39.20;;;;;;5034413;27;43968;-61
2022/03/30 09:05:16;;;;;;;4.70;4.28;;;25.50;39.30;;;;;;5036874;27;43545;-61
2022/03/30 09:07:44;;;;;;;4.28;3.95;;;25.40;39.40;;;;;;5057512;27;43871;-61
2022/03/30 09:10:14;;;;;;;5.25;3.70;;;25.40;39.40;;;;;;5039949;27;43521;-62
2022/03/30 09:12:43;;;;;;;5.30;4.00;;;25.30;39.40;;;;;;5039182;27;43491;-61
2022/03/30 09:15:12;;;;;;;4.00;3.60;;;25.30;39.60;;;;;;5072055;27;43447;-61
2022/03/30 09:18:01;;;;;;;4.63;3.63;;;25.20;39.60;;;;;;5080698;27;44752;-61
2022/03/30 09:20:40;;;;;;;5.80;3.40;;;25.10;39.80;;;;;;5045989;27;43445;-62
2022/03/30 09:23:10;;;;;;;3.63;3.30;;;25.10;40.20;;;;;;5052146;27;43413;-61
2022/03/30 09:25:46;;;;;;;4.45;3.30;;;25.10;39.70;;;;;;5035968;27;44115;-61
2022/03/30 09:28:19;;;;;;;4.47;3.38;;;25.10;39.70;;;;;;5072379;27;44942;-61
2022/03/30 09:30:48;;;;;;;3.28;2.97;;;25.00;39.60;;;;;;5056634;27;43733;-62
2022/03/30 09:33:17;;;;;;;3.88;2.80;;;25.00;39.60;;;;;;5041793;27;43395;-61
2022/03/30 09:35:45;;;;;;;4.47;2.80;;;25.00;39.50;;;;;;5038846;27;43568;-62
2022/03/30 09:38:16;;;;;;;4.63;2.67;;;24.90;39.60;;;;;;5031622;27;44687;-61
2022/03/30 09:40:52;;;;;;;;;;;24.90;39.60;;;;;;5061416;27;44172;-62
2022/03/30 09:43:24;;;;;;;3.47;2.75;;;24.90;39.70;;;;;;5035932;27;43387;-62
2022/03/30 09:46:11;;;;;;;2.65;2.35;;;24.80;39.70;;;;;;5100780;27;43490;-62
2022/03/30 09:48:52;;;;;;;2.42;2.22;;;24.90;39.70;;;;;;5030725;27;43879;-61
2022/03/30 09:51:21;;;;;;;;;;;24.80;39.70;;;;;;5037491;28;44146;-62
2022/03/30 09:53:49;;;;;;;3.35;2.00;;;24.80;39.80;;;;;;5063459;27;43387;-61
2022/03/30 09:56:18;;;;;;;4.38;2.20;;;24.80;39.80;;;;;;5054475;27;43588;-61
2022/03/30 09:58:46;;;;;;;2.90;2.15;;;24.80;39.80;;;;;;5093759;27;46032;-60
2022/03/30 10:01:29;;;;;;;3.33;2.20;;;24.70;39.80;;;;;;5043111;27;43476;-61
2022/03/30 10:03:59;;;;;;;4.50;2.10;;;24.70;39.90;;;;;;5036540;27;43528;-61
2022/03/30 10:06:40;;;;;;;3.22;2.00;;;24.70;40.00;;;;;;5101288;27;43401;-62
2022/03/30 10:09:15;;;;;;;3.33;2.00;;;24.70;40.00;;;;;;5037843;27;44805;-61
2022/03/30 10:11:44;;;;;;;2.80;2.05;;;24.70;40.00;;;;;;5084599;27;43464;-60
2022/03/30 10:14:12;;;;;;;2.97;1.80;;;24.60;40.00;;;;;;5091838;27;43516;-61
2022/03/30 10:16:44;;;;;;;3.13;2.00;;;24.60;40.00;;;;;;5044322;27;43489;-61
2022/03/30 10:19:12;;;;;;;2.03;1.80;;;24.60;40.10;;;;;;5080415;27;44003;-62
2022/03/30 10:22:02;;;;;;;2.30;1.70;;;24.60;40.10;;;;;;5044970;27;43432;-61
2022/03/30 10:24:46;;;;;;;2.00;1.80;;;24.60;40.10;;;;;;5049395;27;43925;-61
2022/03/30 10:27:30;;;;;;;2.53;1.67;;;24.50;40.20;;;;;;5038722;27;43575;-61
2022/03/30 10:30:03;;;;;;;1.95;1.75;;;24.50;40.30;;;;;;5039543;27;44957;-61
2022/03/30 10:32:38;;;;;;;1.77;1.60;;;24.50;40.30;;;;;;5087358;27;43997;-62
2022/03/30 10:35:12;;;;;;;3.40;1.75;;;24.40;40.30;;;;;;5036730;27;43457;-62
2022/03/30 10:37:43;;;;;;;2.28;1.42;;;24.40;40.40;;;;;;5036901;27;43647;-62
2022/03/30 10:40:23;;;;;;;2.10;1.40;;;24.20;40.30;;;;;;5042554;27;44706;-62
2022/03/30 10:42:50;;;;;;;1.23;1.13;;;24.10;40.40;;;;;;5054648;27;43466;-62
2022/03/30 10:45:43;;;;;;;1.52;1.30;;;24.10;40.60;;;;;;5055113;27;44083;-62
2022/03/30 10:48:20;;;;;;;1.98;1.48;;;24.10;40.60;;;;;;5044414;27;43654;-61
2022/03/30 10:50:54;;;;;;;1.90;1.40;;;24.10;40.70;;;;;;5036607;27;43780;-62
2022/03/30 10:53:31;;;;;;;2.53;1.50;;;24.10;40.60;;;;;;5040284;27;43682;-61
2022/03/30 10:56:07;;;;;;;1.60;1.50;;;24.00;40.60;;;;;;5039143;27;43410;-61
2022/03/30 10:58:35;;;;;;;1.63;1.52;;;24.00;41.30;;;;;;5040515;27;43553;-61
2022/03/30 11:01:22;;;;;;;3.33;1.30;;;23.90;40.70;;;;;;5037605;27;43797;-61
2022/03/30 11:04:10;;;;;;;2.63;1.40;;;23.90;40.70;;;;;;5040515;27;44013;-61
2022/03/30 11:06:42;;;;;;;1.48;1.30;;;23.90;40.90;;;;;;5049683;27;43523;-61
2022/03/30 11:09:20;;;;;;;1.58;1.30;;;23.80;41.10;;;;;;5059504;27;43465;-61
2022/03/30 11:11:56;;;;;;;1.25;1.10;;;23.70;40.90;;;;;;5035478;27;44947;-61
2022/03/30 11:14:39;;;;;;;1.58;1.20;;;23.70;41.00;;;;;;5034349;27;43551;-62
2022/03/30 11:17:12;;;;;;;1.63;1.10;;;23.70;41.20;;;;;;5040879;27;43481;-61
2022/03/30 11:19:57;;;;;;;1.55;1.10;;;23.60;41.20;;;;;;5038199;27;43492;-62
2022/03/30 11:22:28;;;;;;;2.17;1.10;;;23.60;41.20;;;;;;5037720;27;44084;-61
2022/03/30 11:25:22;;;;;;;2.38;1.20;;;23.60;41.20;;;;;;5034982;27;43490;-62
2022/03/30 11:28:01;;;;;;;1.23;1.13;;;23.60;41.20;;;;;;5038853;27;43448;-61
2022/03/30 11:30:36;;;;;;;0.90;0.90;;;23.50;41.10;;;;;;5056124;27;43450;-61
2022/03/30 11:33:19;;;;;;;1.67;0.90;;;23.50;41.10;;;;;;5036997;27;43787;-62
2022/03/30 11:35:48;;;;;;;0.70;0.70;;;23.50;41.10;;;;;;5031907;27;43509;-61
2022/03/30 11:38:24;;;;;;;1.35;1.00;;;23.40;41.00;;;;;;5038100;27;43422;-61
2022/03/30 11:41:06;;;;;;;1.08;0.90;;;23.40;41.10;;;;;;5047495;27;43580;-61
2022/03/30 11:45:12;;;;;;;1.70;0.88;;;23.40;41.00;;;;;;5033670;27;44042;-62
2022/03/30 11:46:28;;;;;;;2.08;1.13;;;23.30;41.00;;;;;;5064277;27;44028;-62
2022/03/30 11:49:02;;;;;;;1.20;1.10;;;23.30;41.20;;;;;;5037173;27;43464;-61
2022/03/30 11:51:32;;;;;;;1.05;0.75;;;23.20;41.20;;;;;;5038891;27;43513;-61
2022/03/30 11:54:09;;;;;;;1.85;1.00;;;23.20;41.30;;;;;;5037562;27;43877;-61
2022/03/30 11:56:37;;;;;;;1.35;1.00;;;23.20;41.30;;;;;;5035907;27;44773;-61
2022/03/30 11:59:04;;;;;;;1.02;0.65;;;23.20;41.40;;;;;;5039647;27;43532;-61
2022/03/30 12:01:35;;;;;;;0.98;0.70;;;23.20;41.40;;;;;;5035059;27;43591;-61
2022/03/30 12:04:04;;;;;;;1.25;0.95;;;23.10;41.40;;;;;;5041399;27;44684;-61
2022/03/30 12:06:31;;;;;;;1.90;0.60;;;23.10;41.50;;;;;;5038160;27;44017;-61
2022/03/30 12:08:59;;;;;;;0.98;0.85;;;23.20;41.60;;;;;;5113763;27;43437;-62
2022/03/30 12:11:29;;;;;;;1.17;1.00;;;23.20;41.50;;;;;;5039524;28;43461;-61
2022/03/30 12:13:59;;;;;;;1.02;0.93;;;23.10;41.50;;;;;;5038509;27;44987;-60
2022/03/30 12:16:32;;;;;;;1.63;0.83;;;23.10;41.80;;;;;;5037908;27;43455;-61
2022/03/30 12:18:59;;;;;;;2.50;1.00;;;23.10;41.50;;;;;;5037796;27;43426;-61
2022/03/30 12:21:29;;;;;;;0.88;0.80;;;23.10;41.30;;;;;;5035239;27;43474;-62
2022/03/30 12:23:58;;;;;;;0.65;0.65;;;23.10;41.40;;;;;;5038086;27;43807;-62
2022/03/30 12:26:58;;;;;;;1.55;0.77;;;23.10;41.50;;;;;;5039060;27;44050;-61
2022/03/30 12:29:30;;;;;;;1.23;0.83;;;23.10;41.40;;;;;;5037337;27;43727;-61
2022/03/30 12:31:59;;;;;;;1.13;0.70;;;23.10;41.40;;;;;;5039075;27;43502;-61
2022/03/30 12:34:33;;;;;;;2.30;0.98;;;23.10;41.50;;;;;;5036893;27;44967;-62
2022/03/30 12:37:03;;;;;;;0.63;0.63;;;23.10;41.50;;;;;;5096512;27;43967;-61
2022/03/30 12:39:39;;;;;;;0.93;0.73;;;23.10;41.50;;;;;;5036921;27;43814;-61
2022/03/30 12:42:17;;;;;;;2.17;1.00;;;23.00;41.50;;;;;;5037129;27;43490;-61
2022/03/30 12:44:51;;;;;;;1.45;0.60;;;23.00;41.60;;;;;;5046776;27;43803;-61
2022/03/30 12:47:33;;;;;;;1.38;0.77;;;23.10;41.70;;;;;;5088537;27;43888;-62
2022/03/30 12:50:13;;;;;;;1.02;0.70;;;23.00;41.60;;;;;;5045620;27;43481;-61
2022/03/30 12:52:44;;;;;;;1.23;0.77;;;23.00;41.50;;;;;;5038795;27;43533;-61
2022/03/30 12:55:16;;;;;;;0.95;0.50;;;23.10;41.50;;;;;;5035741;27;46046;-62
2022/03/30 12:58:08;;;;;;;0.93;0.70;;;23.10;41.50;;;;;;5031456;27;43425;-62
2022/03/30 13:00:47;;;;;;;1.20;0.50;;;23.10;41.40;;;;;;5041775;27;43523;-61
2022/03/30 13:03:24;;;;;;;1.13;0.60;;;23.10;41.40;;;;;;5037254;27;43566;-61
2022/03/30 13:06:07;;;;;;;1.63;0.57;;;23.10;41.30;;;;;;5034109;27;44064;-61
2022/03/30 13:08:37;;;;;;;0.60;0.52;;;23.10;41.40;;;;;;5035419;27;43552;-61
2022/03/30 13:11:07;;;;;;;0.95;0.70;;;23.10;41.30;;;;;;5041254;27;43464;-61
2022/03/30 13:13:37;;;;;;;1.27;0.70;;;23.10;41.40;;;;;;5032587;27;43438;-61